createdAt,value
2017-12-27T00:00:36.843Z,-2.14
2017-12-27T00:03:10.010Z,-1.97
2017-12-27T00:05:43.272Z,-2.03
2017-12-27T00:08:16.359Z,-2.00
2017-12-27T00:10:49.591Z,-2.09
2017-12-27T00:13:22.657Z,-2.09
2017-12-27T00:15:55.828Z,-2.09
2017-12-27T00:18:28.836Z,-2.14
2017-12-27T00:24:12.004Z,-2.19
2017-12-27T00:26:45.305Z,-2.13
2017-12-27T00:29:18.540Z,-2.09
2017-12-27T00:31:45.476Z,-2.28
2017-12-27T00:34:12.948Z,-2.27
2017-12-27T00:36:40.426Z,-2.38
2017-12-27T00:39:07.932Z,-2.34
2017-12-27T00:41:35.396Z,-2.31
2017-12-27T00:44:02.880Z,-2.26
2017-12-27T00:46:30.358Z,-2.32
2017-12-27T00:48:57.866Z,-2.28
2017-12-27T00:51:25.332Z,-2.35
2017-12-27T00:53:52.928Z,-2.32
2017-12-27T00:56:20.501Z,-2.44
2017-12-27T00:58:48.069Z,-2.49
2017-12-27T01:01:15.571Z,-2.58
2017-12-27T01:03:43.056Z,-2.74
2017-12-27T01:06:10.520Z,-2.83
2017-12-27T01:08:38.067Z,-2.88
2017-12-27T01:11:05.588Z,-3.03
2017-12-27T01:13:33.052Z,-3.13
2017-12-27T01:16:00.526Z,-3.24
2017-12-27T01:18:28.146Z,-3.26
2017-12-27T01:20:55.616Z,-3.20
2017-12-27T01:23:23.084Z,-3.15
2017-12-27T01:25:50.620Z,-3.14
2017-12-27T01:28:18.108Z,-3.19
2017-12-27T01:30:45.595Z,-3.14
2017-12-27T01:33:13.096Z,-2.85
2017-12-27T01:35:40.575Z,-2.87
2017-12-27T01:38:08.096Z,-2.97
2017-12-27T01:40:35.576Z,-3.07
2017-12-27T01:43:03.041Z,-3.23
2017-12-27T01:45:30.504Z,-3.32
2017-12-27T01:47:58.043Z,-3.48
2017-12-27T01:50:25.517Z,-3.61
2017-12-27T01:52:53.008Z,-3.67
2017-12-27T01:55:20.491Z,-3.68
2017-12-27T01:57:47.992Z,-3.72
2017-12-27T02:00:15.471Z,-3.75
2017-12-27T02:02:42.976Z,-3.71
2017-12-27T02:05:10.450Z,-3.71
2017-12-27T02:07:37.920Z,-3.76
2017-12-27T02:10:05.414Z,-3.80
2017-12-27T02:12:32.888Z,-3.77
2017-12-27T02:15:00.372Z,-3.73
2017-12-27T02:17:27.884Z,-3.81
2017-12-27T02:19:55.397Z,-3.90
2017-12-27T02:22:22.884Z,-3.86
2017-12-27T02:24:50.356Z,-3.86
2017-12-27T02:27:17.842Z,-3.96
2017-12-27T02:29:45.315Z,-4.06
2017-12-27T02:32:12.796Z,-4.17
2017-12-27T02:34:40.264Z,-4.22
2017-12-27T02:37:07.802Z,-4.25
2017-12-27T02:42:48.400Z,-4.32
2017-12-27T02:45:15.869Z,-4.24
2017-12-27T02:47:43.336Z,-4.24
2017-12-27T02:50:10.817Z,-4.25
2017-12-27T02:52:38.281Z,-4.29
2017-12-27T02:55:05.848Z,-4.20
2017-12-27T02:57:33.374Z,-4.06
2017-12-27T03:00:00.860Z,-4.16
2017-12-27T03:02:28.326Z,-4.24
2017-12-27T03:04:55.795Z,-4.35
2017-12-27T03:07:23.281Z,-4.39
2017-12-27T03:09:50.756Z,-4.38
2017-12-27T03:12:18.260Z,-4.37
2017-12-27T03:14:45.728Z,-4.38
2017-12-27T03:17:13.193Z,-4.33
2017-12-27T03:19:40.684Z,-4.24
2017-12-27T03:22:08.148Z,-4.29
2017-12-27T03:24:35.632Z,-4.30
2017-12-27T03:27:03.108Z,-4.29
2017-12-27T03:29:30.612Z,-4.09
2017-12-27T03:31:58.084Z,-3.91
2017-12-27T03:34:25.562Z,-3.90
2017-12-27T03:36:53.044Z,-3.90
2017-12-27T03:39:20.507Z,-4.05
2017-12-27T03:41:47.988Z,-4.16
2017-12-27T03:44:15.506Z,-4.18
2017-12-27T03:46:42.991Z,-4.16
2017-12-27T03:49:10.464Z,-4.16
2017-12-27T03:51:38.017Z,-4.27
2017-12-27T03:54:05.496Z,-4.35
2017-12-27T03:56:32.963Z,-4.48
2017-12-27T03:59:00.448Z,-4.45
2017-12-27T04:01:27.925Z,-4.57
2017-12-27T04:03:55.392Z,-4.58
2017-12-27T04:06:22.880Z,-4.59
2017-12-27T04:08:50.356Z,-4.57
2017-12-27T04:11:17.815Z,-4.57
2017-12-27T04:13:45.316Z,-4.51
2017-12-27T04:16:12.784Z,-4.54
2017-12-27T04:18:40.251Z,-4.50
2017-12-27T04:21:07.756Z,-4.55
2017-12-27T04:23:35.257Z,-4.49
2017-12-27T04:26:02.736Z,-4.32
2017-12-27T04:28:30.223Z,-4.35
2017-12-27T04:30:57.689Z,-4.43
2017-12-27T04:33:25.151Z,-4.36
2017-12-27T04:35:52.635Z,-4.29
2017-12-27T04:38:20.108Z,-4.21
2017-12-27T04:40:47.575Z,-4.19
2017-12-27T04:43:15.066Z,-4.17
2017-12-27T04:45:42.686Z,-4.09
2017-12-27T04:48:10.156Z,-4.02
2017-12-27T04:50:37.700Z,-3.93
2017-12-27T04:53:05.171Z,-3.93
2017-12-27T04:55:32.635Z,-3.98
2017-12-27T04:58:00.131Z,-4.00
2017-12-27T05:00:27.605Z,-4.06
2017-12-27T05:02:55.071Z,-4.07
2017-12-27T05:05:22.551Z,-4.06
2017-12-27T05:07:50.030Z,-4.05
2017-12-27T05:10:17.509Z,-4.03
2017-12-27T05:12:44.996Z,-4.02
2017-12-27T05:15:12.468Z,-3.94
2017-12-27T05:17:39.937Z,-3.97
2017-12-27T05:20:07.420Z,-3.75
2017-12-27T05:22:34.884Z,-3.77
2017-12-27T05:25:02.352Z,-3.71
2017-12-27T05:27:29.839Z,-3.71
2017-12-27T05:29:57.308Z,-3.64
2017-12-27T05:32:24.797Z,-3.69
2017-12-27T05:34:52.277Z,-3.65
2017-12-27T05:37:19.739Z,-3.61
2017-12-27T05:39:47.241Z,-3.42
2017-12-27T05:42:14.745Z,-3.48
2017-12-27T05:44:42.212Z,-3.18
2017-12-27T05:47:09.696Z,-3.18
2017-12-27T05:49:37.172Z,-3.18
2017-12-27T05:52:04.654Z,-3.18
2017-12-27T05:54:32.135Z,-3.34
2017-12-27T05:56:59.659Z,-3.20
2017-12-27T05:59:27.143Z,-2.91
2017-12-27T06:01:54.617Z,-2.92
2017-12-27T06:04:22.107Z,-3.03
2017-12-27T06:06:49.572Z,-3.01
2017-12-27T06:09:17.046Z,-3.09
2017-12-27T06:11:44.527Z,-3.06
2017-12-27T06:14:12.017Z,-3.03
2017-12-27T06:16:39.540Z,-2.92
2017-12-27T06:19:07.012Z,-3.17
2017-12-27T06:21:34.496Z,-3.24
2017-12-27T06:24:01.986Z,-3.15
2017-12-27T06:26:29.555Z,-2.93
2017-12-27T06:28:57.097Z,-2.99
2017-12-27T06:31:24.574Z,-3.04
2017-12-27T06:33:52.056Z,-3.02
2017-12-27T06:36:19.540Z,-3.03
2017-12-27T06:38:47.040Z,-2.90
2017-12-27T06:41:14.528Z,-2.77
2017-12-27T06:43:42.003Z,-2.90
2017-12-27T06:46:09.487Z,-2.74
2017-12-27T06:48:36.953Z,-2.65
2017-12-27T06:51:04.424Z,-2.44
2017-12-27T06:53:31.907Z,-2.69
2017-12-27T06:55:59.382Z,-2.89
2017-12-27T06:58:26.852Z,-2.82
2017-12-27T07:00:54.344Z,-2.78
2017-12-27T07:03:21.818Z,-2.62
2017-12-27T07:05:49.288Z,-2.54
2017-12-27T07:08:16.780Z,-2.42
2017-12-27T07:10:44.248Z,-2.43
2017-12-27T07:13:11.740Z,-2.43
2017-12-27T07:15:39.208Z,-2.27
2017-12-27T07:18:06.672Z,-2.32
2017-12-27T07:20:34.337Z,-2.24
2017-12-27T07:23:01.811Z,-2.20
2017-12-27T07:25:29.317Z,-2.07
2017-12-27T07:27:56.800Z,-1.83
2017-12-27T07:30:24.268Z,-1.73
2017-12-27T07:32:51.756Z,-1.82
2017-12-27T07:35:19.231Z,-2.12
2017-12-27T07:37:46.704Z,-2.03
2017-12-27T07:40:14.193Z,-2.18
2017-12-27T07:42:41.676Z,-2.13
2017-12-27T07:45:09.144Z,-1.86
2017-12-27T07:47:36.632Z,-1.78
2017-12-27T07:50:04.104Z,-1.84
2017-12-27T07:52:31.585Z,-1.85
2017-12-27T07:54:59.068Z,-1.86
2017-12-27T07:57:26.550Z,-1.68
2017-12-27T07:59:54.036Z,-1.40
2017-12-27T08:02:21.684Z,-1.47
2017-12-27T08:04:49.556Z,-1.33
2017-12-27T08:07:17.060Z,-1.02
2017-12-27T08:09:44.532Z,-1.24
2017-12-27T08:12:11.996Z,-1.00
2017-12-27T08:14:39.621Z,-0.80
2017-12-27T08:17:07.105Z,-0.80
2017-12-27T08:19:34.572Z,-1.00
2017-12-27T08:22:02.060Z,-0.81
2017-12-27T08:24:29.548Z,-0.82
2017-12-27T08:26:57.016Z,-0.91
2017-12-27T08:29:24.666Z,-0.61
2017-12-27T08:31:52.152Z,-0.72
2017-12-27T08:34:19.696Z,-0.69
2017-12-27T08:36:47.189Z,-0.41
2017-12-27T08:39:14.656Z,-0.14
2017-12-27T08:41:42.124Z,-0.42
2017-12-27T08:44:09.616Z,-0.13
2017-12-27T08:46:37.088Z,-0.11
2017-12-27T08:49:04.556Z,-0.19
2017-12-27T08:51:32.402Z,-0.01
2017-12-27T08:53:59.872Z,-0.18
2017-12-27T08:56:27.364Z,-0.09
2017-12-27T08:58:54.856Z,-0.10
2017-12-27T09:01:22.325Z,0.15
2017-12-27T09:03:49.829Z,0.19
2017-12-27T09:06:17.337Z,0.47
2017-12-27T09:08:44.797Z,0.59
2017-12-27T09:11:12.285Z,0.78
2017-12-27T09:13:39.801Z,0.99
2017-12-27T09:16:07.280Z,1.05
2017-12-27T09:18:34.763Z,1.23
2017-12-27T09:21:02.228Z,1.43
2017-12-27T09:23:29.712Z,1.69
2017-12-27T09:25:57.184Z,2.02
2017-12-27T09:28:24.648Z,1.80
2017-12-27T09:30:52.132Z,1.46
2017-12-27T09:33:19.636Z,1.34
2017-12-27T09:35:47.148Z,1.62
2017-12-27T09:38:14.620Z,2.05
2017-12-27T09:40:42.109Z,1.49
2017-12-27T09:43:09.571Z,1.49
2017-12-27T09:45:37.074Z,1.22
2017-12-27T09:48:04.605Z,2.09
2017-12-27T09:50:32.067Z,1.72
2017-12-27T09:52:59.551Z,1.45
2017-12-27T09:55:27.239Z,1.58
2017-12-27T09:57:54.788Z,2.12
2017-12-27T10:00:22.263Z,2.44
2017-12-27T10:02:49.733Z,3.10
2017-12-27T10:05:17.345Z,4.09
2017-12-27T10:07:44.885Z,4.93
2017-12-27T10:10:12.381Z,5.27
2017-12-27T10:12:39.917Z,4.32
2017-12-27T10:15:07.396Z,5.02
2017-12-27T10:17:34.939Z,6.57
2017-12-27T10:20:02.649Z,8.19
2017-12-27T10:22:30.131Z,10.39
2017-12-27T10:24:57.592Z,11.04
2017-12-27T10:27:25.056Z,10.01
2017-12-27T10:29:52.541Z,9.43
2017-12-27T10:32:20.897Z,9.30
2017-12-27T10:34:51.017Z,8.09
2017-12-27T10:37:19.555Z,8.34
2017-12-27T10:39:47.071Z,8.72
2017-12-27T10:42:14.800Z,9.13
2017-12-27T10:44:42.301Z,8.93
2017-12-27T10:47:09.764Z,8.66
2017-12-27T10:49:39.847Z,8.13
2017-12-27T10:52:10.580Z,7.33
2017-12-27T10:54:38.201Z,6.18
2017-12-27T10:57:10.052Z,3.59
2017-12-27T10:59:38.529Z,3.93
2017-12-27T11:02:05.996Z,3.64
2017-12-27T11:04:34.645Z,3.38
2017-12-27T11:07:02.160Z,4.14
2017-12-27T11:09:29.632Z,4.59
2017-12-27T11:11:57.107Z,4.59
2017-12-27T11:14:24.571Z,3.52
2017-12-27T11:16:52.181Z,3.33
2017-12-27T11:19:19.668Z,3.62
2017-12-27T11:21:47.149Z,3.60
2017-12-27T11:24:14.652Z,3.01
2017-12-27T11:26:42.120Z,3.17
2017-12-27T11:29:09.605Z,3.34
2017-12-27T11:31:37.068Z,3.14
2017-12-27T11:34:04.540Z,3.11
2017-12-27T11:36:32.032Z,3.18
2017-12-27T11:38:59.516Z,2.98
2017-12-27T11:41:26.976Z,2.87
2017-12-27T11:43:54.457Z,2.53
2017-12-27T11:46:21.924Z,2.57
2017-12-27T11:48:49.389Z,2.33
2017-12-27T11:51:16.884Z,2.09
2017-12-27T11:53:44.352Z,2.05
2017-12-27T11:56:11.812Z,1.80
2017-12-27T11:58:39.288Z,1.60
2017-12-27T12:01:06.752Z,2.03
2017-12-27T12:03:34.220Z,2.51
2017-12-27T12:06:01.710Z,2.74
2017-12-27T12:08:29.173Z,3.05
2017-12-27T12:10:56.711Z,3.36
2017-12-27T12:13:24.193Z,3.79
2017-12-27T12:15:51.683Z,4.24
2017-12-27T12:18:19.144Z,5.57
2017-12-27T12:20:46.636Z,8.01
2017-12-27T12:23:14.100Z,9.35
2017-12-27T12:25:41.570Z,11.09
2017-12-27T12:28:09.116Z,11.82
2017-12-27T12:30:36.589Z,12.00
2017-12-27T12:33:04.096Z,11.20
2017-12-27T12:35:31.589Z,9.93
2017-12-27T12:37:59.051Z,9.10
2017-12-27T12:40:26.514Z,8.97
2017-12-27T12:42:53.993Z,9.18
2017-12-27T12:45:21.460Z,8.25
2017-12-27T12:47:48.956Z,7.71
2017-12-27T12:50:16.434Z,7.23
2017-12-27T12:52:43.912Z,6.15
2017-12-27T12:55:11.372Z,5.39
2017-12-27T12:57:38.832Z,4.27
2017-12-27T13:00:06.314Z,4.72
2017-12-27T13:02:33.775Z,4.47
2017-12-27T13:05:01.252Z,4.45
2017-12-27T13:07:28.727Z,4.03
2017-12-27T13:09:56.212Z,4.12
2017-12-27T13:12:23.929Z,4.04
2017-12-27T13:14:51.392Z,3.99
2017-12-27T13:17:18.888Z,4.04
2017-12-27T13:19:46.344Z,3.93
2017-12-27T13:22:13.808Z,3.80
2017-12-27T13:24:41.328Z,3.58
2017-12-27T13:27:08.794Z,3.64
2017-12-27T13:29:36.262Z,3.48
2017-12-27T13:32:03.750Z,3.22
2017-12-27T13:34:31.220Z,3.32
2017-12-27T13:36:58.691Z,3.36
2017-12-27T13:39:26.175Z,3.20
2017-12-27T13:41:53.640Z,3.00
2017-12-27T13:44:21.115Z,2.76
2017-12-27T13:46:48.600Z,2.50
2017-12-27T13:49:16.217Z,2.49
2017-12-27T13:51:43.685Z,2.33
2017-12-27T13:54:11.245Z,2.32
2017-12-27T13:56:38.712Z,2.53
2017-12-27T13:59:06.194Z,2.62
2017-12-27T14:01:33.684Z,2.41
2017-12-27T14:04:01.155Z,2.31
2017-12-27T14:06:28.620Z,2.11
2017-12-27T14:08:56.104Z,2.16
2017-12-27T14:11:23.573Z,2.21
2017-12-27T14:13:51.260Z,2.19
2017-12-27T14:16:18.752Z,2.01
2017-12-27T14:18:46.228Z,2.02
2017-12-27T14:21:14.262Z,2.11
2017-12-27T14:23:41.744Z,1.89
2017-12-27T14:26:09.212Z,2.00
2017-12-27T14:28:36.681Z,1.85
2017-12-27T14:31:04.196Z,1.41
2017-12-27T14:33:31.664Z,1.33
2017-12-27T14:35:59.151Z,1.39
2017-12-27T14:38:26.628Z,1.48
2017-12-27T14:40:54.103Z,1.48
2017-12-27T14:43:21.568Z,1.48
2017-12-27T14:45:49.048Z,1.65
2017-12-27T14:48:16.518Z,1.86
2017-12-27T14:50:43.987Z,1.76
2017-12-27T14:53:11.465Z,1.80
2017-12-27T14:55:38.952Z,1.83
2017-12-27T14:58:06.420Z,1.83
2017-12-27T15:00:33.904Z,1.86
2017-12-27T15:03:01.572Z,1.82
2017-12-27T15:05:29.036Z,1.56
2017-12-27T15:07:56.547Z,1.62
2017-12-27T15:10:24.022Z,1.56
2017-12-27T15:12:51.510Z,1.55
2017-12-27T15:15:19.004Z,1.52
2017-12-27T15:17:46.477Z,1.58
2017-12-27T15:20:13.959Z,1.73
2017-12-27T15:22:41.428Z,1.48
2017-12-27T15:25:08.904Z,1.48
2017-12-27T15:27:36.384Z,1.44
2017-12-27T15:30:03.849Z,1.46
2017-12-27T15:32:32.212Z,1.51
2017-12-27T15:34:59.683Z,1.47
2017-12-27T15:37:27.152Z,1.53
2017-12-27T15:39:54.638Z,1.75
2017-12-27T15:42:22.105Z,1.63
2017-12-27T15:44:49.588Z,1.49
2017-12-27T15:47:17.064Z,1.35
2017-12-27T15:49:44.560Z,1.33
2017-12-27T15:52:12.038Z,1.30
2017-12-27T15:54:39.506Z,1.24
2017-12-27T15:57:06.985Z,1.20
2017-12-27T15:59:34.464Z,1.22
2017-12-27T16:02:01.933Z,1.22
2017-12-27T16:04:29.420Z,1.34
2017-12-27T16:06:56.904Z,1.15
2017-12-27T16:09:24.392Z,1.11
2017-12-27T16:11:51.851Z,1.22
2017-12-27T16:14:19.316Z,1.28
2017-12-27T16:16:46.804Z,1.11
2017-12-27T16:19:14.280Z,1.08
2017-12-27T16:21:41.809Z,1.04
2017-12-27T16:24:09.277Z,1.06
2017-12-27T16:26:36.744Z,1.03
2017-12-27T16:29:04.229Z,1.04
2017-12-27T16:31:31.693Z,1.02
2017-12-27T16:33:59.155Z,1.02
2017-12-27T16:36:26.639Z,1.02
2017-12-27T16:38:54.100Z,1.02
2017-12-27T16:41:21.565Z,1.01
2017-12-27T16:43:49.658Z,1.03
2017-12-27T16:46:17.134Z,1.04
2017-12-27T16:48:44.813Z,1.02
2017-12-27T16:51:12.302Z,1.02
2017-12-27T16:53:39.776Z,1.07
2017-12-27T16:56:07.271Z,1.07
2017-12-27T16:58:34.755Z,1.11
2017-12-27T17:01:02.289Z,1.12
2017-12-27T17:03:29.760Z,1.13
2017-12-27T17:05:57.259Z,1.15
2017-12-27T17:08:24.761Z,1.14
2017-12-27T17:10:52.228Z,1.13
2017-12-27T17:13:19.728Z,1.16
2017-12-27T17:15:47.192Z,1.18
2017-12-27T17:18:14.652Z,1.22
2017-12-27T17:20:42.141Z,1.24
2017-12-27T17:23:09.610Z,1.30
2017-12-27T17:25:37.072Z,1.31
2017-12-27T17:28:04.551Z,1.38
2017-12-27T17:30:32.020Z,1.33
2017-12-27T17:32:59.480Z,1.35
2017-12-27T17:35:26.983Z,1.36
2017-12-27T17:37:54.556Z,1.40
2017-12-27T17:40:22.025Z,1.47
2017-12-27T17:42:49.509Z,1.44
2017-12-27T17:45:17.251Z,1.46
2017-12-27T17:47:44.737Z,1.50
2017-12-27T17:50:12.301Z,1.44
2017-12-27T17:52:39.792Z,1.46
2017-12-27T17:55:07.280Z,1.49
2017-12-27T17:57:34.788Z,1.53
2017-12-27T18:00:02.255Z,1.57
2017-12-27T18:02:29.748Z,1.65
2017-12-27T18:04:57.212Z,1.82
2017-12-27T18:07:24.676Z,1.81
2017-12-27T18:09:52.989Z,1.86
2017-12-27T18:12:20.443Z,1.77
2017-12-27T18:14:47.921Z,1.66
2017-12-27T18:17:15.384Z,1.75
2017-12-27T18:19:42.864Z,1.82
2017-12-27T18:22:10.333Z,1.76
2017-12-27T18:24:37.797Z,1.80
2017-12-27T18:27:05.281Z,1.83
2017-12-27T18:29:35.111Z,1.88
2017-12-27T18:32:02.604Z,2.02
2017-12-27T18:34:30.090Z,1.93
2017-12-27T18:36:57.559Z,1.92
2017-12-27T18:39:25.041Z,1.95
2017-12-27T18:41:52.512Z,1.98
2017-12-27T18:44:20.029Z,2.02
2017-12-27T18:46:47.588Z,2.04
2017-12-27T18:49:15.052Z,2.05
2017-12-27T18:51:43.088Z,2.10
2017-12-27T18:54:10.644Z,2.09
2017-12-27T18:56:38.132Z,2.24
2017-12-27T18:59:06.522Z,2.17
2017-12-27T19:01:33.983Z,2.16
2017-12-27T19:04:01.469Z,2.18
2017-12-27T19:06:28.952Z,2.20
2017-12-27T19:08:56.432Z,2.20
2017-12-27T19:11:23.896Z,2.23
2017-12-27T19:13:51.834Z,2.16
2017-12-27T19:16:21.316Z,2.14
2017-12-27T19:18:49.717Z,2.18
2017-12-27T19:21:17.213Z,2.04
2017-12-27T19:23:44.724Z,2.06
2017-12-27T19:26:12.202Z,1.94
2017-12-27T19:28:39.668Z,1.83
2017-12-27T19:31:07.151Z,1.74
2017-12-27T19:33:34.612Z,1.61
2017-12-27T19:36:02.072Z,1.39
2017-12-27T19:38:29.556Z,1.29
2017-12-27T19:40:57.253Z,1.20
2017-12-27T19:43:24.720Z,1.17
2017-12-27T19:45:52.208Z,1.08
2017-12-27T19:48:19.675Z,0.92
2017-12-27T19:50:47.174Z,0.82
2017-12-27T19:53:14.652Z,0.72
2017-12-27T19:55:42.116Z,0.63
2017-12-27T19:58:09.576Z,0.55
2017-12-27T20:00:37.056Z,0.42
2017-12-27T20:03:04.519Z,0.28
2017-12-27T20:05:32.096Z,0.17
2017-12-27T20:07:59.584Z,0.15
2017-12-27T20:10:27.152Z,0.07
2017-12-27T20:12:54.612Z,0.02
2017-12-27T20:15:22.097Z,-0.04
2017-12-27T20:17:49.582Z,-0.05
2017-12-27T20:20:17.070Z,-0.12
2017-12-27T20:22:44.556Z,-0.14
2017-12-27T20:25:12.025Z,-0.12
2017-12-27T20:27:39.544Z,-0.17
2017-12-27T20:30:07.028Z,-0.17
2017-12-27T20:32:34.501Z,-0.18
2017-12-27T20:35:01.996Z,-0.18
2017-12-27T20:37:29.486Z,-0.18
2017-12-27T20:39:56.996Z,-0.19
2017-12-27T20:42:24.468Z,-0.23
2017-12-27T20:44:51.946Z,-0.18
2017-12-27T20:47:19.560Z,-0.16
2017-12-27T20:49:47.024Z,-0.18
2017-12-27T20:52:14.859Z,-0.17
2017-12-27T20:54:42.393Z,-0.15
2017-12-27T20:57:09.880Z,-0.14
2017-12-27T20:59:37.344Z,-0.15
2017-12-27T21:02:04.832Z,-0.14
2017-12-27T21:04:32.337Z,-0.12
2017-12-27T21:06:59.824Z,-0.14
2017-12-27T21:09:28.268Z,-0.12
2017-12-27T21:11:55.747Z,-0.14
2017-12-27T21:14:23.483Z,-0.15
2017-12-27T21:16:50.957Z,-0.13
2017-12-27T21:19:18.500Z,-0.13
2017-12-27T21:21:45.984Z,-0.14
2017-12-27T21:24:13.456Z,-0.12
2017-12-27T21:26:40.920Z,-0.14
2017-12-27T21:29:08.408Z,-0.14
2017-12-27T21:31:35.881Z,-0.15
2017-12-27T21:34:03.386Z,-0.14
2017-12-27T21:36:30.860Z,-0.16
2017-12-27T21:38:58.353Z,-0.12
2017-12-27T21:41:26.452Z,-0.14
2017-12-27T21:43:53.916Z,-0.01
2017-12-27T21:46:21.398Z,0.00
2017-12-27T21:48:54.488Z,-0.13
2017-12-27T21:51:21.975Z,-0.14
2017-12-27T21:53:49.440Z,-0.15
2017-12-27T21:56:16.944Z,-0.15
2017-12-27T21:58:50.132Z,-0.15
2017-12-27T22:01:23.138Z,-0.14
2017-12-27T22:03:50.609Z,-0.10
2017-12-27T22:06:18.075Z,-0.04
2017-12-27T22:08:45.563Z,-0.11
2017-12-27T22:11:13.032Z,-0.14
2017-12-27T22:13:40.522Z,-0.12
2017-12-27T22:16:07.989Z,-0.15
2017-12-27T22:18:35.666Z,-0.12
2017-12-27T22:21:08.988Z,-0.12
2017-12-27T22:23:36.740Z,-0.11
2017-12-27T22:26:04.228Z,0.01
2017-12-27T22:28:32.286Z,0.03
2017-12-27T22:30:59.751Z,-0.04
2017-12-27T22:33:27.303Z,-0.01
2017-12-27T22:35:54.771Z,0.02
2017-12-27T22:38:22.261Z,-0.03
2017-12-27T22:40:49.748Z,-0.06
2017-12-27T22:43:17.233Z,-0.03
2017-12-27T22:45:44.707Z,0.04
2017-12-27T22:48:12.235Z,0.05
2017-12-27T22:50:39.695Z,0.09
2017-12-27T22:53:07.243Z,0.01
2017-12-27T22:55:34.736Z,-0.03
2017-12-27T22:58:02.224Z,-0.01
2017-12-27T23:00:29.725Z,-0.03
2017-12-27T23:02:57.284Z,0.00
2017-12-27T23:05:24.748Z,0.07
2017-12-27T23:07:52.319Z,0.05
2017-12-27T23:10:19.799Z,0.09
2017-12-27T23:12:47.276Z,0.08
2017-12-27T23:15:14.739Z,0.13
2017-12-27T23:17:42.228Z,0.18
2017-12-27T23:20:09.698Z,0.18
2017-12-27T23:22:37.164Z,0.19
2017-12-27T23:25:05.499Z,0.25
2017-12-27T23:27:32.977Z,0.22
2017-12-27T23:30:00.436Z,0.17
2017-12-27T23:32:27.908Z,0.19
2017-12-27T23:34:55.368Z,0.18
2017-12-27T23:37:22.852Z,0.18
2017-12-27T23:39:50.340Z,0.16
2017-12-27T23:42:17.791Z,0.20
2017-12-27T23:44:45.244Z,0.15
2017-12-27T23:47:12.718Z,0.15
2017-12-27T23:49:40.178Z,0.10
2017-12-27T23:52:07.676Z,0.08
2017-12-27T23:54:35.150Z,0.08
2017-12-27T23:57:02.609Z,0.05
2017-12-27T23:59:30.176Z,0.09
